createdAt,value
2017-07-11T00:00:04.129Z,0
2017-07-11T00:01:04.103Z,0
2017-07-11T00:02:03.762Z,0
2017-07-11T00:03:03.451Z,0
2017-07-11T00:04:04.054Z,0
2017-07-11T00:05:03.729Z,0
2017-07-11T00:06:03.725Z,0
2017-07-11T00:07:04.013Z,0
2017-07-11T00:08:03.996Z,0
2017-07-11T00:09:03.372Z,0
2017-07-11T00:10:03.975Z,0
2017-07-11T00:11:03.027Z,0
2017-07-11T00:12:03.636Z,0
2017-07-11T00:13:03.944Z,0
2017-07-11T00:14:03.611Z,0
2017-07-11T00:15:03.585Z,0
2017-07-11T00:16:03.576Z,0
2017-07-11T00:17:03.892Z,0
2017-07-11T00:18:03.887Z,0
2017-07-11T00:19:03.858Z,0
2017-07-11T00:20:03.531Z,0
2017-07-11T00:21:03.837Z,0
2017-07-11T00:22:03.829Z,0
2017-07-11T00:23:03.488Z,0
2017-07-11T00:24:03.158Z,0
2017-07-11T00:25:03.770Z,0
2017-07-11T00:26:02.831Z,0
2017-07-11T00:27:03.439Z,0
2017-07-11T00:28:03.749Z,0
2017-07-11T00:29:03.732Z,0
2017-07-11T00:30:03.402Z,0
2017-07-11T00:31:03.752Z,0
2017-07-11T00:32:03.673Z,0
2017-07-11T00:33:03.669Z,0
2017-07-11T00:34:03.350Z,0
2017-07-11T00:35:03.644Z,0
2017-07-11T00:36:03.322Z,0
2017-07-11T00:37:03.314Z,0
2017-07-11T00:38:03.299Z,0
2017-07-11T00:39:03.588Z,0
2017-07-11T00:40:03.579Z,0
2017-07-11T00:41:03.555Z,0
2017-07-11T00:42:03.561Z,0
2017-07-11T00:43:03.545Z,0
2017-07-11T00:44:03.538Z,0
2017-07-11T00:45:03.526Z,0
2017-07-11T00:46:03.514Z,0
2017-07-11T00:47:03.501Z,0
2017-07-11T00:48:03.465Z,0
2017-07-11T00:49:03.459Z,0
2017-07-11T00:50:03.455Z,0
2017-07-11T00:51:03.434Z,0
2017-07-11T00:52:03.424Z,0
2017-07-11T00:53:02.482Z,0
2017-07-11T00:54:03.408Z,0
2017-07-11T00:55:03.394Z,0
2017-07-11T00:56:03.383Z,0
2017-07-11T00:57:03.353Z,0
2017-07-11T00:58:03.032Z,0
2017-07-11T00:59:03.323Z,0
2017-07-11T01:00:02.999Z,0
2017-07-11T01:01:03.297Z,0
2017-07-11T01:02:02.664Z,0
2017-07-11T01:03:03.282Z,0
2017-07-11T01:04:02.647Z,0
2017-07-11T01:05:03.276Z,0
2017-07-11T01:06:02.935Z,0
2017-07-11T01:07:02.921Z,0
2017-07-11T01:08:03.222Z,0
2017-07-11T01:09:02.884Z,0
2017-07-11T01:10:02.886Z,0
2017-07-11T01:11:02.873Z,0
2017-07-11T01:12:02.846Z,0
2017-07-11T01:13:03.151Z,0
2017-07-11T01:14:03.124Z,0
2017-07-11T01:15:02.498Z,0
2017-07-11T01:16:03.102Z,0
2017-07-11T01:17:02.790Z,0
2017-07-11T01:18:02.466Z,0
2017-07-11T01:19:03.061Z,0
2017-07-11T01:20:03.077Z,0
2017-07-11T01:21:02.433Z,0
2017-07-11T01:22:03.033Z,0
2017-07-11T01:23:02.402Z,0
2017-07-11T01:24:02.073Z,0
2017-07-11T01:25:02.688Z,0
2017-07-11T01:26:02.664Z,0
2017-07-11T01:27:02.961Z,0
2017-07-11T01:28:02.955Z,0
2017-07-11T01:29:02.954Z,0
2017-07-11T01:30:02.920Z,0
2017-07-11T01:31:02.936Z,0
2017-07-11T01:32:02.891Z,0
2017-07-11T01:33:02.899Z,0
2017-07-11T01:34:02.872Z,0
2017-07-11T01:35:02.549Z,0
2017-07-11T01:36:02.855Z,0
2017-07-11T01:37:02.827Z,0
2017-07-11T01:38:02.520Z,0
2017-07-11T01:39:02.826Z,0
2017-07-11T01:40:02.498Z,0
2017-07-11T01:41:02.777Z,0
2017-07-11T01:42:02.784Z,0
2017-07-11T01:43:02.449Z,0
2017-07-11T01:44:02.740Z,0
2017-07-11T01:45:02.731Z,0
2017-07-11T01:46:02.410Z,0
2017-07-11T01:47:02.409Z,0
2017-07-11T01:48:02.386Z,0
2017-07-11T01:49:02.369Z,0
2017-07-11T01:50:02.371Z,0
2017-07-11T01:51:02.640Z,0
2017-07-11T01:52:02.345Z,0
2017-07-11T01:53:02.326Z,0
2017-07-11T01:54:01.986Z,0
2017-07-11T01:55:02.299Z,0
2017-07-11T01:56:02.588Z,0
2017-07-11T01:57:02.574Z,0
2017-07-11T01:58:02.559Z,0
2017-07-11T01:59:02.249Z,0
2017-07-11T02:00:02.237Z,0
2017-07-11T02:01:01.904Z,0
2017-07-11T02:02:02.261Z,0
2017-07-11T02:03:01.877Z,0
2017-07-11T02:04:02.494Z,0
2017-07-11T02:05:02.158Z,0
2017-07-11T02:06:02.147Z,0
2017-07-11T02:07:02.142Z,0
2017-07-11T02:08:02.421Z,0
2017-07-11T02:09:02.427Z,0
2017-07-11T02:10:02.406Z,0
2017-07-11T02:11:01.762Z,0
2017-07-11T02:12:02.058Z,0
2017-07-11T02:13:02.068Z,0
2017-07-11T02:14:02.361Z,0
2017-07-11T02:15:02.025Z,0
2017-07-11T02:16:01.703Z,0
2017-07-11T02:17:02.323Z,0
2017-07-11T02:18:02.298Z,0
2017-07-11T02:19:02.299Z,0
2017-07-11T02:20:01.658Z,0
2017-07-11T02:21:02.263Z,0
2017-07-11T02:22:01.008Z,0
2017-07-11T02:23:01.923Z,0
2017-07-11T02:24:01.599Z,0
2017-07-11T02:25:01.584Z,0
2017-07-11T02:26:01.876Z,0
2017-07-11T02:27:01.567Z,0
2017-07-11T02:28:02.165Z,0
2017-07-11T02:29:02.153Z,0
2017-07-11T02:30:02.149Z,0
2017-07-11T02:31:02.135Z,0
2017-07-11T02:32:01.789Z,0
2017-07-11T02:33:02.103Z,0
2017-07-11T02:34:01.779Z,0
2017-07-11T02:35:01.456Z,0
2017-07-11T02:36:01.747Z,0
2017-07-11T02:37:02.042Z,0
2017-07-11T02:38:02.036Z,0
2017-07-11T02:39:01.714Z,0
2017-07-11T02:40:01.683Z,0
2017-07-11T02:41:01.980Z,0
2017-07-11T02:42:01.983Z,0
2017-07-11T02:43:01.969Z,0
2017-07-11T02:44:01.956Z,0
2017-07-11T02:45:01.937Z,0
2017-07-11T02:46:01.623Z,0
2017-07-11T02:47:00.984Z,0
2017-07-11T02:48:01.908Z,0
2017-07-11T02:49:01.899Z,0
2017-07-11T02:50:01.256Z,0
2017-07-11T02:51:01.560Z,0
2017-07-11T02:52:01.850Z,0
2017-07-11T02:53:01.285Z,0
2017-07-11T02:54:01.819Z,0
2017-07-11T02:55:01.802Z,0
2017-07-11T02:56:01.788Z,0
2017-07-11T02:57:01.472Z,0
2017-07-11T02:58:01.762Z,0
2017-07-11T02:59:01.765Z,0
2017-07-11T03:00:01.748Z,0
2017-07-11T03:01:01.735Z,0
2017-07-11T03:02:01.717Z,0
2017-07-11T03:03:01.701Z,0
2017-07-11T03:04:01.380Z,0
2017-07-11T03:05:01.679Z,0
2017-07-11T03:06:01.666Z,0
2017-07-11T03:07:01.342Z,0
2017-07-11T03:08:01.641Z,0
2017-07-11T03:09:01.309Z,0
2017-07-11T03:10:01.632Z,0
2017-07-11T03:11:01.606Z,0
2017-07-11T03:12:01.577Z,0
2017-07-11T03:13:01.579Z,0
2017-07-11T03:14:01.580Z,0
2017-07-11T03:15:01.541Z,0
2017-07-11T03:16:01.232Z,0
2017-07-11T03:17:01.512Z,5
2017-07-11T03:18:01.536Z,5
2017-07-11T03:19:01.512Z,5
2017-07-11T03:20:01.493Z,5
2017-07-11T03:21:01.484Z,5
2017-07-11T03:22:01.460Z,5
2017-07-11T03:23:00.823Z,10
2017-07-11T03:24:01.110Z,10
2017-07-11T03:25:01.111Z,10
2017-07-11T03:26:01.088Z,10
2017-07-11T03:27:01.091Z,15
2017-07-11T03:28:01.373Z,15
2017-07-11T03:29:01.369Z,15
2017-07-11T03:30:00.734Z,20
2017-07-11T03:31:01.338Z,20
2017-07-11T03:32:01.332Z,25
2017-07-11T03:33:01.316Z,25
2017-07-11T03:34:00.998Z,25
2017-07-11T03:35:01.291Z,30
2017-07-11T03:36:01.500Z,30
2017-07-11T03:37:01.267Z,35
2017-07-11T03:38:00.935Z,35
2017-07-11T03:39:01.243Z,40
2017-07-11T03:40:00.914Z,40
2017-07-11T03:41:00.895Z,45
2017-07-11T03:42:00.883Z,50
2017-07-11T03:43:00.868Z,60
2017-07-11T03:44:00.867Z,60
2017-07-11T03:45:00.854Z,70
2017-07-11T03:46:01.353Z,75
2017-07-11T03:47:00.830Z,80
2017-07-11T03:48:01.121Z,90
2017-07-11T03:49:01.107Z,90
2017-07-11T03:50:00.787Z,90
2017-07-11T03:51:01.086Z,95
2017-07-11T03:52:00.749Z,100
2017-07-11T03:53:01.057Z,105
2017-07-11T03:54:01.034Z,85
2017-07-11T03:55:01.041Z,90
2017-07-11T03:56:01.004Z,95
2017-07-11T03:57:00.998Z,115
2017-07-11T03:58:01.003Z,125
2017-07-11T03:59:00.979Z,120
2017-07-11T04:00:00.976Z,130
2017-07-11T04:01:00.951Z,160
2017-07-11T04:02:00.928Z,140
2017-07-11T04:03:00.941Z,115
2017-07-11T04:04:00.655Z,120
2017-07-11T04:05:00.889Z,155
2017-07-11T04:06:00.892Z,185
2017-07-11T04:07:00.566Z,170
2017-07-11T04:08:00.868Z,165
2017-07-11T04:09:00.525Z,180
2017-07-11T04:10:00.818Z,170
2017-07-11T04:11:00.805Z,155
2017-07-11T04:12:00.494Z,185
2017-07-11T04:13:00.798Z,210
2017-07-11T04:14:00.785Z,215
2017-07-11T04:15:00.762Z,145
2017-07-11T04:16:00.958Z,160
2017-07-11T04:17:00.734Z,185
2017-07-11T04:18:00.725Z,235
2017-07-11T04:19:00.720Z,235
2017-07-11T04:20:00.689Z,245
2017-07-11T04:21:00.686Z,190
2017-07-11T04:22:00.679Z,225
2017-07-11T04:23:00.657Z,220
2017-07-11T04:24:00.327Z,195
2017-07-11T04:25:00.628Z,210
2017-07-11T04:26:00.605Z,210
2017-07-11T04:27:00.608Z,245
2017-07-11T04:28:00.598Z,240
2017-07-11T04:29:00.271Z,215
2017-07-11T04:29:59.956Z,260
2017-07-11T04:31:00.550Z,260
2017-07-11T04:32:00.541Z,270
2017-07-11T04:33:00.222Z,260
2017-07-11T04:34:00.244Z,265
2017-07-11T04:35:00.188Z,300
2017-07-11T04:36:00.173Z,365
2017-07-11T04:37:00.157Z,310
2017-07-11T04:38:00.153Z,280
2017-07-11T04:39:00.452Z,325
2017-07-11T04:39:59.817Z,305
2017-07-11T04:41:00.112Z,275
2017-07-11T04:42:00.476Z,315
2017-07-11T04:43:00.385Z,335
2017-07-11T04:44:00.072Z,345
2017-07-11T04:45:00.379Z,345
2017-07-11T04:46:00.240Z,375
2017-07-11T04:47:13.684Z,285
2017-07-11T04:48:00.320Z,410
2017-07-11T04:49:00.313Z,490
2017-07-11T04:50:00.299Z,330
2017-07-11T04:50:59.986Z,430
2017-07-11T04:52:00.491Z,395
2017-07-11T04:53:00.250Z,470
2017-07-11T04:54:00.240Z,400
2017-07-11T04:55:00.246Z,395
2017-07-11T04:56:00.231Z,360
2017-07-11T04:56:59.484Z,445
2017-07-11T04:57:59.575Z,345
2017-07-11T04:59:00.192Z,515
2017-07-11T04:59:59.862Z,560
2017-07-11T05:01:00.361Z,475
2017-07-11T05:02:00.145Z,555
2017-07-11T05:03:00.137Z,550
2017-07-11T05:04:00.122Z,430
2017-07-11T05:04:59.499Z,400
2017-07-11T05:06:00.093Z,455
2017-07-11T05:07:00.082Z,480
2017-07-11T05:07:59.757Z,490
2017-07-11T05:09:00.044Z,480
2017-07-11T05:09:59.737Z,485
2017-07-11T05:11:00.027Z,555
2017-07-11T05:11:59.394Z,445
2017-07-11T05:12:59.691Z,500
2017-07-11T05:13:59.984Z,485
2017-07-11T05:14:59.979Z,350
2017-07-11T05:15:59.970Z,225
2017-07-11T05:16:59.658Z,265
2017-07-11T05:17:59.631Z,260
2017-07-11T05:18:59.936Z,235
2017-07-11T05:19:59.911Z,200
2017-07-11T05:20:59.902Z,255
2017-07-11T05:21:59.785Z,200
2017-07-11T05:22:59.870Z,195
2017-07-11T05:23:59.555Z,215
2017-07-11T05:24:59.856Z,195
2017-07-11T05:25:59.826Z,230
2017-07-11T05:26:59.716Z,215
2017-07-11T05:28:00.017Z,185
2017-07-11T05:28:59.484Z,205
2017-07-11T05:29:59.780Z,240
2017-07-11T05:30:59.462Z,285
2017-07-11T05:31:59.442Z,515
2017-07-11T05:32:59.646Z,460
2017-07-11T05:33:59.482Z,405
2017-07-11T05:34:59.098Z,445
2017-07-11T05:35:59.714Z,690
2017-07-11T05:36:59.708Z,585
2017-07-11T05:37:59.685Z,425
2017-07-11T05:38:59.355Z,615
2017-07-11T05:39:59.354Z,740
2017-07-11T05:40:59.661Z,465
2017-07-11T05:41:59.011Z,560
2017-07-11T05:42:59.633Z,500
2017-07-11T05:43:59.608Z,490
2017-07-11T05:44:59.603Z,650
2017-07-11T05:45:59.585Z,1440
2017-07-11T05:46:59.568Z,1215
2017-07-11T05:47:59.578Z,1845
2017-07-11T05:48:59.239Z,1835
2017-07-11T05:49:59.541Z,2055
2017-07-11T05:50:59.527Z,1410
2017-07-11T05:51:59.515Z,1560
2017-07-11T05:52:59.399Z,1850
2017-07-11T05:53:59.160Z,1290
2017-07-11T05:54:59.488Z,1735
2017-07-11T05:55:59.463Z,1730
2017-07-11T05:56:59.443Z,1480
2017-07-11T05:57:59.322Z,1460
2017-07-11T05:58:59.418Z,1605
2017-07-11T05:59:59.404Z,1390
2017-07-11T06:00:59.096Z,1590
2017-07-11T06:01:59.390Z,1670
2017-07-11T06:02:59.379Z,1620
2017-07-11T06:03:58.733Z,1550
2017-07-11T06:04:59.345Z,1495
2017-07-11T06:05:59.340Z,1545
2017-07-11T06:06:59.325Z,1710
2017-07-11T06:07:59.304Z,1795
2017-07-11T06:08:58.983Z,1850
2017-07-11T06:09:58.967Z,1595
2017-07-11T06:10:58.641Z,1915
2017-07-11T06:11:59.263Z,1890
2017-07-11T06:12:58.313Z,2400
2017-07-11T06:13:58.923Z,845
2017-07-11T06:14:58.916Z,1000
2017-07-11T06:15:58.929Z,920
2017-07-11T06:16:58.892Z,2275
2017-07-11T06:17:58.872Z,1890
2017-07-11T06:18:58.868Z,1275
2017-07-11T06:19:59.164Z,2235
2017-07-11T06:20:59.156Z,1160
2017-07-11T06:21:59.148Z,2040
2017-07-11T06:22:59.113Z,2265
2017-07-11T06:23:58.800Z,2645
2017-07-11T06:24:59.096Z,1140
2017-07-11T06:25:58.784Z,2515
2017-07-11T06:26:59.075Z,1190
2017-07-11T06:27:58.741Z,2765
2017-07-11T06:28:59.046Z,1110
2017-07-11T06:29:59.046Z,1070
2017-07-11T06:30:58.708Z,1035
2017-07-11T06:31:59.014Z,950
2017-07-11T06:32:58.996Z,1475
2017-07-11T06:33:58.678Z,2345
2017-07-11T06:34:58.982Z,2795
2017-07-11T06:35:58.963Z,1890
2017-07-11T06:36:58.958Z,1380
2017-07-11T06:37:58.311Z,1580
2017-07-11T06:38:58.818Z,1195
2017-07-11T06:39:59.150Z,1625
2017-07-11T06:40:58.910Z,1435
2017-07-11T06:41:58.900Z,1725
2017-07-11T06:43:00.300Z,2420
2017-07-11T06:43:59.278Z,2025
2017-07-11T06:44:58.855Z,2370
2017-07-11T06:45:58.852Z,2505
2017-07-11T06:46:58.836Z,2445
2017-07-11T06:47:58.831Z,2450
2017-07-11T06:54:16.940Z,2970
2017-07-11T06:54:32.788Z,1760
2017-07-11T06:55:33.092Z,1825
2017-07-11T06:56:33.081Z,1435
2017-07-11T06:57:32.804Z,1170
2017-07-11T06:58:32.744Z,1295
2017-07-11T06:59:32.730Z,2655
2017-07-11T07:00:32.738Z,1455
2017-07-11T07:01:32.389Z,2465
2017-07-11T07:02:32.692Z,2565
2017-07-11T07:03:32.674Z,2860
2017-07-11T07:04:32.678Z,1695
2017-07-11T07:05:32.963Z,2135
2017-07-11T07:06:32.337Z,2395
2017-07-11T07:07:32.953Z,2325
2017-07-11T07:08:32.005Z,1535
2017-07-11T07:09:32.931Z,1575
2017-07-11T07:10:32.900Z,1385
2017-07-11T07:11:32.582Z,1255
2017-07-11T07:12:32.889Z,1320
2017-07-11T07:13:32.860Z,980
2017-07-11T07:14:32.229Z,1285
2017-07-11T07:15:32.855Z,1855
2017-07-11T07:16:32.849Z,2610
2017-07-11T07:17:32.831Z,3540
2017-07-11T07:18:32.501Z,1720
2017-07-11T07:19:32.899Z,1380
2017-07-11T07:20:32.732Z,1295
2017-07-11T07:21:32.717Z,1030
2017-07-11T07:22:32.519Z,1935
2017-07-11T07:23:32.194Z,1440
2017-07-11T07:24:32.171Z,2680
2017-07-11T07:25:32.943Z,1390
2017-07-11T07:26:32.718Z,1660
2017-07-11T07:27:32.389Z,1910
2017-07-11T07:28:32.388Z,1780
2017-07-11T07:29:32.066Z,2905
2017-07-11T07:30:32.354Z,3675
2017-07-11T07:31:32.655Z,3470
2017-07-11T07:32:31.713Z,1535
2017-07-11T07:33:32.638Z,1290
2017-07-11T07:34:32.635Z,1615
2017-07-11T07:35:31.370Z,1860
2017-07-11T07:36:31.353Z,1475
2017-07-11T07:37:31.967Z,1645
2017-07-11T07:38:32.576Z,1360
2017-07-11T07:39:32.571Z,1320
2017-07-11T07:40:32.316Z,1270
2017-07-11T07:41:31.931Z,1255
2017-07-11T07:42:31.910Z,1620
2017-07-11T07:43:31.893Z,1920
2017-07-11T07:44:32.222Z,1445
2017-07-11T07:45:32.522Z,2750
2017-07-11T07:46:32.194Z,2735
2017-07-11T07:47:32.482Z,3790
2017-07-11T07:48:32.177Z,3415
2017-07-11T07:49:32.475Z,3190
2017-07-11T07:50:31.840Z,2990
2017-07-11T07:51:32.434Z,3145
2017-07-11T07:52:46.029Z,1290
2017-07-11T07:53:32.102Z,1360
2017-07-11T07:54:32.404Z,2460
2017-07-11T07:55:32.400Z,1485
2017-07-11T07:56:32.160Z,1145
2017-07-11T07:57:32.363Z,1195
2017-07-11T07:58:32.375Z,1470
2017-07-11T07:59:31.736Z,1455
2017-07-11T08:00:31.732Z,1400
2017-07-11T08:01:31.918Z,1305
2017-07-11T08:02:32.520Z,1400
2017-07-11T08:03:32.318Z,1370
2017-07-11T08:04:31.979Z,1450
2017-07-11T08:05:31.982Z,1015
2017-07-11T08:06:32.282Z,1810
2017-07-11T08:07:31.339Z,2250
2017-07-11T08:08:31.946Z,1540
2017-07-11T08:09:31.935Z,1640
2017-07-11T08:10:31.926Z,1280
2017-07-11T08:11:31.606Z,1755
2017-07-11T08:12:31.973Z,1330
2017-07-11T08:13:31.903Z,1035
2017-07-11T08:14:32.191Z,1105
2017-07-11T08:15:31.877Z,955
2017-07-11T08:16:32.178Z,1025
2017-07-11T08:17:32.144Z,1140
2017-07-11T08:18:31.849Z,1075
2017-07-11T08:19:31.838Z,1325
2017-07-11T08:20:31.821Z,1345
2017-07-11T08:21:31.823Z,965
2017-07-11T08:22:31.495Z,995
2017-07-11T08:23:32.086Z,1170
2017-07-11T08:24:32.094Z,1525
2017-07-11T08:25:32.079Z,1535
2017-07-11T08:26:31.743Z,1510
2017-07-11T08:27:46.362Z,1425
2017-07-11T08:28:31.429Z,1300
2017-07-11T08:29:31.720Z,1260
2017-07-11T08:30:32.031Z,1210
2017-07-11T08:31:31.711Z,1175
2017-07-11T08:32:31.696Z,1255
2017-07-11T08:33:31.678Z,1250
2017-07-11T08:34:31.677Z,1380
2017-07-11T08:35:31.717Z,1415
2017-07-11T08:36:31.379Z,1690
2017-07-11T08:37:32.050Z,1855
2017-07-11T08:38:32.194Z,1975
2017-07-11T08:39:31.926Z,2135
2017-07-11T08:40:31.616Z,2260
2017-07-11T08:41:31.609Z,2215
2017-07-11T08:42:31.900Z,2925
2017-07-11T08:43:31.580Z,2350
2017-07-11T08:44:31.889Z,4615
2017-07-11T08:45:31.563Z,2970
2017-07-11T08:46:31.560Z,2980
2017-07-11T08:47:31.542Z,3165
2017-07-11T08:48:31.541Z,3805
2017-07-11T08:49:31.854Z,3785
2017-07-11T08:50:31.223Z,2070
2017-07-11T08:51:31.225Z,2520
2017-07-11T08:52:31.200Z,2525
2017-07-11T08:53:34.223Z,4545
2017-07-11T08:54:31.162Z,3860
2017-07-11T08:55:31.152Z,4395
2017-07-11T08:56:31.795Z,3385
2017-07-11T08:57:31.770Z,3055
2017-07-11T08:58:31.451Z,2330
2017-07-11T08:59:31.128Z,2235
2017-07-11T09:00:31.122Z,1935
2017-07-11T09:01:31.426Z,2210
2017-07-11T09:02:31.402Z,2475
2017-07-11T09:03:31.390Z,2420
2017-07-11T09:04:31.084Z,2185
2017-07-11T09:05:31.682Z,2450
2017-07-11T09:06:31.380Z,2670
2017-07-11T09:07:31.683Z,2900
2017-07-11T09:08:31.660Z,2305
2017-07-11T09:09:31.657Z,2210
2017-07-11T09:10:31.014Z,2170
2017-07-11T09:11:31.532Z,2165
2017-07-11T09:12:30.702Z,2270
2017-07-11T09:13:31.622Z,2080
2017-07-11T09:14:31.317Z,2180
2017-07-11T09:15:31.596Z,2435
2017-07-11T09:16:31.589Z,2750
2017-07-11T09:17:31.588Z,2955
2017-07-11T09:18:31.581Z,3135
2017-07-11T09:19:31.566Z,2800
2017-07-11T09:20:31.247Z,2950
2017-07-11T09:21:30.924Z,3150
2017-07-11T09:22:30.905Z,3695
2017-07-11T09:23:30.904Z,3305
2017-07-11T09:24:30.905Z,3080
2017-07-11T09:25:31.522Z,3265
2017-07-11T09:26:31.495Z,3290
2017-07-11T09:27:31.188Z,3465
2017-07-11T09:28:31.489Z,2205
2017-07-11T09:29:31.165Z,1595
2017-07-11T09:30:31.449Z,1410
2017-07-11T09:31:30.849Z,1660
2017-07-11T09:32:31.138Z,1760
2017-07-11T09:33:31.442Z,1515
2017-07-11T09:34:31.103Z,2175
2017-07-11T09:35:31.448Z,2335
2017-07-11T09:36:31.100Z,2690
2017-07-11T09:37:30.777Z,2815
2017-07-11T09:38:31.373Z,2665
2017-07-11T09:39:31.067Z,2625
2017-07-11T09:40:31.375Z,2415
2017-07-11T09:41:31.374Z,2325
2017-07-11T09:42:31.046Z,2725
2017-07-11T09:43:31.350Z,2990
2017-07-11T09:44:31.247Z,3430
2017-07-11T09:45:31.325Z,3335
2017-07-11T09:46:31.012Z,3955
2017-07-11T09:47:45.917Z,3820
2017-07-11T09:48:30.981Z,3195
2017-07-11T09:49:30.680Z,3000
2017-07-11T09:50:31.515Z,3435
2017-07-11T09:51:30.338Z,3000
2017-07-11T09:52:30.955Z,3075
2017-07-11T09:53:31.257Z,2860
2017-07-11T09:54:31.002Z,3185
2017-07-11T09:55:30.942Z,3270
2017-07-11T09:56:30.925Z,1640
2017-07-11T09:57:30.915Z,5230
2017-07-11T09:58:31.229Z,3980
2017-07-11T09:59:30.913Z,4980
2017-07-11T10:00:30.911Z,4065
2017-07-11T10:01:31.201Z,4900
2017-07-11T10:02:30.256Z,4350
2017-07-11T10:03:31.198Z,6075
2017-07-11T10:04:31.177Z,6090
2017-07-11T10:05:31.173Z,5375
2017-07-11T10:06:30.573Z,4775
2017-07-11T10:07:30.837Z,4490
2017-07-11T10:08:31.143Z,2860
2017-07-11T10:09:31.142Z,3935
2017-07-11T10:10:31.135Z,3580
2017-07-11T10:11:31.123Z,2705
2017-07-11T10:12:31.107Z,2895
2017-07-11T10:13:31.108Z,2965
2017-07-11T10:14:30.795Z,3140
2017-07-11T10:15:31.077Z,3100
2017-07-11T10:16:31.073Z,2475
2017-07-11T10:17:30.447Z,2215
2017-07-11T10:18:31.062Z,2195
2017-07-11T10:19:31.057Z,2055
2017-07-11T10:20:30.731Z,2115
2017-07-11T10:21:31.037Z,2465
2017-07-11T10:22:30.098Z,2425
2017-07-11T10:23:30.096Z,2055
2017-07-11T10:24:30.702Z,1635
2017-07-11T10:25:31.006Z,1255
2017-07-11T10:26:30.691Z,1240
2017-07-11T10:27:30.978Z,1370
2017-07-11T10:28:30.668Z,1570
2017-07-11T10:29:30.354Z,1790
2017-07-11T10:30:30.955Z,1480
2017-07-11T10:31:30.636Z,1210
2017-07-11T10:32:30.947Z,1165
2017-07-11T10:33:30.919Z,1295
2017-07-11T10:34:30.608Z,1395
2017-07-11T10:35:30.280Z,1385
2017-07-11T10:36:30.584Z,1355
2017-07-11T10:37:30.583Z,1660
2017-07-11T10:38:30.875Z,2420
2017-07-11T10:39:30.563Z,2350
2017-07-11T10:40:30.557Z,2155
2017-07-11T10:41:30.551Z,2185
2017-07-11T10:42:30.540Z,1985
2017-07-11T10:43:30.519Z,2315
2017-07-11T10:44:30.826Z,2705
2017-07-11T10:45:30.818Z,2845
2017-07-11T10:46:30.814Z,2475
2017-07-11T10:47:30.809Z,2360
2017-07-11T10:48:30.784Z,2340
2017-07-11T10:49:30.482Z,3060
2017-07-11T10:50:30.782Z,2765
2017-07-11T10:51:30.764Z,2370
2017-07-11T10:52:30.763Z,1935
2017-07-11T10:53:30.131Z,3760
2017-07-11T10:54:29.811Z,3180
2017-07-11T10:55:30.420Z,2380
2017-07-11T10:56:30.419Z,2260
2017-07-11T10:57:30.398Z,2375
2017-07-11T10:58:30.695Z,2525
2017-07-11T10:59:30.390Z,3550
2017-07-11T11:00:30.382Z,2910
2017-07-11T11:01:30.682Z,3070
2017-07-11T11:02:30.057Z,2180
2017-07-11T11:03:30.357Z,1825
2017-07-11T11:04:30.034Z,1930
2017-07-11T11:05:30.338Z,2315
2017-07-11T11:06:30.033Z,3000
2017-07-11T11:07:30.336Z,3995
2017-07-11T11:08:30.631Z,2380
2017-07-11T11:09:30.310Z,2320
2017-07-11T11:10:30.308Z,2305
2017-07-11T11:11:30.285Z,2395
2017-07-11T11:12:29.968Z,2275
2017-07-11T11:13:30.578Z,2495
2017-07-11T11:14:30.262Z,1760
2017-07-11T11:15:30.257Z,1585
2017-07-11T11:16:29.939Z,1740
2017-07-11T11:17:30.269Z,2225
2017-07-11T11:18:29.957Z,2305
2017-07-11T11:19:30.535Z,1800
2017-07-11T11:20:30.233Z,1610
2017-07-11T11:21:30.220Z,1590
2017-07-11T11:22:30.210Z,1470
2017-07-11T11:23:29.267Z,1485
2017-07-11T11:24:30.514Z,1715
2017-07-11T11:25:30.499Z,1825
2017-07-11T11:26:30.238Z,1735
2017-07-11T11:27:30.466Z,1800
2017-07-11T11:28:30.465Z,1770
2017-07-11T11:29:30.147Z,1775
2017-07-11T11:30:30.136Z,1740
2017-07-11T11:31:30.458Z,1855
2017-07-11T11:32:30.435Z,1785
2017-07-11T11:33:30.429Z,1685
2017-07-11T11:34:30.410Z,1735
2017-07-11T11:35:30.396Z,1830
2017-07-11T11:36:29.782Z,1750
2017-07-11T11:37:29.771Z,1605
2017-07-11T11:38:30.376Z,1610
2017-07-11T11:39:30.061Z,1625
2017-07-11T11:40:30.368Z,1495
2017-07-11T11:41:30.045Z,1465
2017-07-11T11:42:30.021Z,1650
2017-07-11T11:43:30.330Z,1655
2017-07-11T11:44:30.328Z,1565
2017-07-11T11:45:30.325Z,1855
2017-07-11T11:46:29.690Z,2315
2017-07-11T11:47:29.979Z,2845
2017-07-11T11:48:29.677Z,2870
2017-07-11T11:49:30.282Z,2505
2017-07-11T11:50:29.965Z,2765
2017-07-11T11:51:29.952Z,2675
2017-07-11T11:52:30.265Z,2570
2017-07-11T11:53:29.941Z,2210
2017-07-11T11:54:29.621Z,2680
2017-07-11T11:55:30.248Z,2600
2017-07-11T11:56:30.223Z,2230
2017-07-11T11:57:29.915Z,1790
2017-07-11T11:58:30.224Z,1880
2017-07-11T11:59:29.588Z,1930
2017-07-11T12:00:29.890Z,1565
2017-07-11T12:01:29.880Z,1455
2017-07-11T12:02:29.860Z,1545
2017-07-11T12:03:29.237Z,1500
2017-07-11T12:04:29.229Z,1310
2017-07-11T12:05:30.160Z,1375
2017-07-11T12:06:29.838Z,1785
2017-07-11T12:07:29.842Z,1970
2017-07-11T12:08:29.835Z,1770
2017-07-11T12:09:29.824Z,1715
2017-07-11T12:10:29.817Z,1885
2017-07-11T12:11:29.195Z,1905
2017-07-11T12:12:30.108Z,1855
2017-07-11T12:13:30.119Z,1785
2017-07-11T12:14:29.470Z,1630
2017-07-11T12:15:29.464Z,1425
2017-07-11T12:16:29.765Z,1075
2017-07-11T12:17:30.071Z,940
2017-07-11T12:18:29.752Z,885
2017-07-11T12:19:30.071Z,1150
2017-07-11T12:20:29.737Z,1350
2017-07-11T12:21:30.041Z,1715
2017-07-11T12:22:28.794Z,1945
2017-07-11T12:23:29.714Z,2240
2017-07-11T12:24:29.726Z,2090
2017-07-11T12:25:29.698Z,1990
2017-07-11T12:26:29.999Z,1855
2017-07-11T12:27:29.688Z,1960
2017-07-11T12:28:29.681Z,1910
2017-07-11T12:29:29.676Z,1865
2017-07-11T12:30:29.974Z,1710
2017-07-11T12:31:29.975Z,1680
2017-07-11T12:32:29.966Z,1745
2017-07-11T12:33:29.955Z,1705
2017-07-11T12:34:29.631Z,1635
2017-07-11T12:35:29.931Z,1370
2017-07-11T12:36:29.613Z,1105
2017-07-11T12:37:29.602Z,1230
2017-07-11T12:38:29.594Z,1685
2017-07-11T12:39:29.592Z,1785
2017-07-11T12:40:29.898Z,1915
2017-07-11T12:41:29.583Z,2050
2017-07-11T12:42:29.251Z,2090
2017-07-11T12:43:29.251Z,2140
2017-07-11T12:44:29.899Z,1975
2017-07-11T12:45:29.551Z,1965
2017-07-11T12:46:29.722Z,1915
2017-07-11T12:47:29.853Z,2015
2017-07-11T12:48:29.832Z,1785
2017-07-11T12:49:29.832Z,1505
2017-07-11T12:50:29.210Z,1320
2017-07-11T12:51:29.512Z,1130
2017-07-11T12:52:29.506Z,1010
2017-07-11T12:53:29.492Z,1265
2017-07-11T12:54:29.809Z,1470
2017-07-11T12:55:29.789Z,1635
2017-07-11T12:56:29.158Z,1460
2017-07-11T12:57:29.471Z,1325
2017-07-11T12:58:29.522Z,1225
2017-07-11T12:59:29.143Z,1195
2017-07-11T13:00:29.743Z,1165
2017-07-11T13:01:29.445Z,1145
2017-07-11T13:02:29.430Z,1080
2017-07-11T13:03:29.425Z,980
2017-07-11T13:04:29.106Z,935
2017-07-11T13:05:29.405Z,970
2017-07-11T13:06:29.403Z,1110
2017-07-11T13:07:29.392Z,1270
2017-07-11T13:08:29.384Z,1240
2017-07-11T13:09:29.384Z,1255
2017-07-11T13:10:29.682Z,1080
2017-07-11T13:11:28.433Z,1150
2017-07-11T13:12:29.362Z,1260
2017-07-11T13:13:29.371Z,1485
2017-07-11T13:14:29.033Z,1695
2017-07-11T13:15:29.020Z,2005
2017-07-11T13:16:29.012Z,2605
2017-07-11T13:17:29.642Z,3160
2017-07-11T13:18:29.618Z,3405
2017-07-11T13:19:29.291Z,3200
2017-07-11T13:20:29.610Z,3870
2017-07-11T13:21:29.271Z,4495
2017-07-11T13:22:28.966Z,3485
2017-07-11T13:23:29.571Z,3115
2017-07-11T13:24:29.251Z,2885
2017-07-11T13:25:29.250Z,3055
2017-07-11T13:26:29.244Z,3295
2017-07-11T13:27:29.228Z,5610
2017-07-11T13:28:29.218Z,2930
2017-07-11T13:29:29.526Z,2560
2017-07-11T13:30:29.525Z,2990
2017-07-11T13:31:29.515Z,2970
2017-07-11T13:32:28.880Z,5305
2017-07-11T13:33:28.879Z,3425
2017-07-11T13:34:28.866Z,2560
2017-07-11T13:35:29.488Z,1845
2017-07-11T13:36:29.169Z,1215
2017-07-11T13:37:29.158Z,1270
2017-07-11T13:38:29.469Z,1065
2017-07-11T13:39:29.462Z,920
2017-07-11T13:40:29.442Z,1015
2017-07-11T13:41:29.442Z,660
2017-07-11T13:42:29.431Z,675
2017-07-11T13:43:29.420Z,905
2017-07-11T13:44:29.430Z,960
2017-07-11T13:45:29.421Z,855
2017-07-11T13:46:29.106Z,925
2017-07-11T13:47:29.412Z,950
2017-07-11T13:48:29.069Z,845
2017-07-11T13:49:29.405Z,645